createdAt,value
2022-10-26T00:00:11.833Z,6.72
2022-10-26T00:02:38.367Z,5.93
2022-10-26T00:05:05.660Z,6.57
2022-10-26T00:07:32.043Z,6.45
2022-10-26T00:09:58.390Z,5.85
2022-10-26T00:12:25.371Z,6.05
2022-10-26T00:14:51.699Z,6.65
2022-10-26T00:17:18.033Z,6.50
2022-10-26T00:19:44.452Z,6.30
2022-10-26T00:22:10.787Z,6.25
2022-10-26T00:24:37.221Z,5.97
2022-10-26T00:27:03.655Z,6.03
2022-10-26T00:29:30.011Z,5.85
2022-10-26T00:31:56.368Z,5.70
2022-10-26T00:34:25.730Z,5.93
2022-10-26T00:36:52.082Z,5.63
2022-10-26T00:39:18.461Z,5.72
2022-10-26T00:41:44.787Z,5.90
2022-10-26T00:44:48.356Z,5.60
2022-10-26T00:47:28.289Z,5.18
2022-10-26T00:49:56.734Z,5.20
2022-10-26T00:52:23.908Z,5.07
2022-10-26T00:54:51.457Z,4.97
2022-10-26T00:57:18.682Z,5.28
2022-10-26T00:59:46.267Z,4.70
2022-10-26T01:02:13.223Z,4.43
2022-10-26T01:04:40.183Z,4.57
2022-10-26T01:07:08.398Z,5.13
2022-10-26T01:09:36.021Z,4.75
2022-10-26T01:12:02.352Z,4.05
2022-10-26T01:14:29.031Z,4.25
2022-10-26T01:17:12.248Z,4.22
2022-10-26T01:19:57.442Z,3.58
2022-10-26T01:22:32.913Z,3.80
2022-10-26T01:25:08.870Z,3.67
2022-10-26T01:30:43.999Z,3.00
2022-10-26T01:33:29.537Z,3.25
2022-10-26T01:36:16.370Z,3.20
2022-10-26T01:38:58.365Z,3.10
2022-10-26T01:41:32.979Z,2.72
2022-10-26T01:44:04.118Z,3.38
2022-10-26T01:46:37.595Z,3.47
2022-10-26T01:49:09.066Z,3.50
2022-10-26T01:51:36.268Z,3.15
2022-10-26T01:54:02.614Z,3.17
2022-10-26T01:56:32.049Z,3.05
2022-10-26T01:59:17.868Z,3.47
2022-10-26T02:01:53.303Z,2.92
2022-10-26T02:04:58.330Z,2.88
2022-10-26T02:07:40.112Z,3.13
2022-10-26T02:10:22.318Z,2.83
2022-10-26T02:12:51.654Z,2.95
2022-10-26T02:15:22.732Z,3.25
2022-10-26T02:18:30.023Z,2.92
2022-10-26T02:23:27.454Z,2.40
2022-10-26T02:25:58.690Z,2.58
2022-10-26T02:28:33.717Z,2.80
2022-10-26T02:31:02.570Z,2.67
2022-10-26T02:33:33.247Z,2.70
2022-10-26T02:36:02.355Z,2.47
2022-10-26T02:38:30.864Z,2.67
2022-10-26T02:40:59.096Z,2.17
2022-10-26T02:43:28.158Z,2.63
2022-10-26T02:45:59.642Z,2.47
2022-10-26T02:48:26.086Z,2.58
2022-10-26T02:51:10.733Z,2.58
2022-10-26T02:53:55.142Z,2.20
2022-10-26T02:56:28.008Z,2.30
2022-10-26T02:58:59.504Z,2.22
2022-10-26T03:01:27.759Z,2.35
2022-10-26T03:03:57.758Z,2.20
2022-10-26T03:06:25.518Z,2.42
2022-10-26T03:08:52.493Z,2.40
2022-10-26T03:11:19.169Z,2.50
2022-10-26T03:13:45.555Z,2.17
2022-10-26T03:16:12.066Z,2.30
2022-10-26T03:18:38.394Z,2.10
2022-10-26T03:21:05.175Z,2.50
2022-10-26T03:23:31.639Z,2.47
2022-10-26T03:25:59.161Z,2.78
2022-10-26T03:28:25.916Z,2.30
2022-10-26T03:30:52.301Z,2.55
2022-10-26T03:33:18.934Z,2.50
2022-10-26T03:35:45.458Z,2.47
2022-10-26T03:38:15.792Z,2.17
2022-10-26T03:40:42.642Z,2.53
2022-10-26T03:43:08.977Z,2.35
2022-10-26T03:45:35.330Z,2.33
2022-10-26T03:48:01.711Z,2.35
2022-10-26T03:50:28.083Z,2.38
2022-10-26T03:52:54.417Z,2.40
2022-10-26T03:55:20.843Z,2.63
2022-10-26T03:57:47.175Z,2.20
2022-10-26T04:00:16.197Z,2.35
2022-10-26T04:02:46.928Z,2.13
2022-10-26T04:05:14.291Z,2.70
2022-10-26T04:07:40.622Z,2.70
2022-10-26T04:10:07.441Z,2.53
2022-10-26T04:12:37.255Z,2.35
2022-10-26T04:15:06.574Z,2.30
2022-10-26T04:17:32.976Z,2.50
2022-10-26T04:19:59.415Z,2.72
2022-10-26T04:22:25.762Z,2.22
2022-10-26T04:24:52.087Z,2.40
2022-10-26T04:27:18.578Z,2.70
2022-10-26T04:29:44.914Z,2.47
2022-10-26T04:32:11.248Z,2.53
2022-10-26T04:34:37.640Z,2.60
2022-10-26T04:37:04.043Z,2.60
2022-10-26T04:39:30.473Z,3.10
2022-10-26T04:41:56.874Z,2.70
2022-10-26T04:44:23.258Z,2.85
2022-10-26T04:46:49.579Z,2.80
2022-10-26T04:49:16.050Z,2.75
2022-10-26T04:51:42.422Z,2.88
2022-10-26T04:54:08.915Z,2.55
2022-10-26T04:56:36.066Z,3.10
2022-10-26T04:59:02.901Z,2.83
2022-10-26T05:01:31.139Z,2.80
2022-10-26T05:03:57.706Z,2.75
2022-10-26T05:06:24.131Z,2.80
2022-10-26T05:08:50.538Z,2.88
2022-10-26T05:11:17.063Z,2.85
2022-10-26T05:13:43.414Z,2.97
2022-10-26T05:16:09.762Z,2.90
2022-10-26T05:18:36.142Z,3.10
2022-10-26T05:21:02.623Z,3.03
2022-10-26T05:23:28.995Z,2.88
2022-10-26T05:25:56.586Z,3.45
2022-10-26T05:28:23.122Z,3.20
2022-10-26T05:30:49.463Z,3.45
2022-10-26T05:33:15.907Z,2.97
2022-10-26T05:35:42.503Z,3.08
2022-10-26T05:38:17.010Z,3.50
2022-10-26T05:40:50.899Z,3.40
2022-10-26T05:43:18.087Z,3.20
2022-10-26T05:45:44.554Z,3.45
2022-10-26T05:48:10.910Z,3.58
2022-10-26T05:50:37.459Z,3.53
2022-10-26T05:53:04.056Z,3.80
2022-10-26T05:55:30.882Z,3.40
2022-10-26T05:57:58.046Z,3.83
2022-10-26T06:00:26.664Z,4.22
2022-10-26T06:03:20.005Z,3.72
2022-10-26T06:06:01.641Z,3.85
2022-10-26T06:08:30.599Z,4.68
2022-10-26T06:10:59.382Z,4.47
2022-10-26T06:13:26.116Z,3.50
2022-10-26T06:16:31.010Z,3.47
2022-10-26T06:19:21.967Z,3.70
2022-10-26T06:22:24.064Z,3.67
2022-10-26T06:25:02.353Z,4.10
2022-10-26T06:27:44.083Z,3.88
2022-10-26T06:30:12.048Z,3.72
2022-10-26T06:32:45.305Z,3.90
2022-10-26T06:35:14.909Z,3.53
2022-10-26T06:37:44.313Z,3.72
2022-10-26T06:40:14.507Z,3.70
2022-10-26T06:42:41.212Z,4.45
2022-10-26T06:45:12.518Z,3.63
2022-10-26T06:48:00.597Z,4.35
2022-10-26T06:50:38.476Z,3.30
2022-10-26T06:53:23.730Z,3.33
2022-10-26T06:55:50.775Z,3.13
2022-10-26T06:58:23.794Z,3.22
2022-10-26T07:00:52.161Z,3.35
2022-10-26T07:03:18.530Z,3.17
2022-10-26T07:05:46.087Z,3.03
2022-10-26T07:08:12.644Z,2.90
2022-10-26T07:10:39.502Z,2.70
2022-10-26T07:13:06.578Z,3.10
2022-10-26T07:15:34.350Z,2.80
2022-10-26T07:18:01.226Z,2.85
2022-10-26T07:20:27.766Z,2.90
2022-10-26T07:22:55.599Z,2.95
2022-10-26T07:25:23.261Z,2.90
2022-10-26T07:27:49.849Z,2.75
2022-10-26T07:30:16.495Z,2.53
2022-10-26T07:32:42.984Z,2.70
2022-10-26T07:35:09.603Z,2.35
2022-10-26T07:37:36.077Z,2.22
2022-10-26T07:40:05.754Z,2.53
2022-10-26T07:42:33.641Z,2.60
2022-10-26T07:44:59.982Z,2.70
2022-10-26T07:47:26.332Z,2.78
2022-10-26T07:49:52.675Z,2.53
2022-10-26T07:52:19.014Z,2.47
2022-10-26T07:54:45.395Z,2.60
2022-10-26T07:57:11.770Z,3.30
2022-10-26T07:59:38.239Z,2.85
2022-10-26T08:02:04.654Z,2.97
2022-10-26T08:04:31.039Z,2.50
2022-10-26T08:06:57.517Z,2.17
2022-10-26T08:09:23.880Z,2.40
2022-10-26T08:11:50.231Z,2.10
2022-10-26T08:14:16.577Z,2.10
2022-10-26T08:16:42.978Z,1.98
2022-10-26T08:19:09.424Z,2.33
2022-10-26T08:21:39.505Z,2.15
2022-10-26T08:24:06.902Z,2.00
2022-10-26T08:26:33.270Z,2.10
2022-10-26T08:28:59.699Z,1.88
2022-10-26T08:31:26.048Z,2.15
2022-10-26T08:33:52.434Z,2.10
2022-10-26T08:36:23.924Z,2.00
2022-10-26T08:38:50.347Z,1.92
2022-10-26T08:41:16.740Z,2.08
2022-10-26T08:43:50.151Z,1.85
2022-10-26T08:46:21.836Z,2.35
2022-10-26T08:48:53.561Z,1.80
2022-10-26T08:51:25.325Z,2.15
2022-10-26T08:53:59.359Z,1.80
2022-10-26T08:56:44.894Z,1.80
2022-10-26T08:59:31.634Z,1.98
2022-10-26T09:01:58.108Z,1.55
2022-10-26T09:04:29.669Z,2.08
2022-10-26T09:07:19.250Z,1.90
2022-10-26T09:09:57.180Z,2.17
2022-10-26T09:12:55.440Z,1.80
2022-10-26T09:15:40.628Z,1.80
2022-10-26T09:18:24.654Z,1.58
2022-10-26T09:21:17.319Z,1.75
2022-10-26T09:24:06.750Z,1.77
2022-10-26T09:26:54.525Z,1.25
2022-10-26T09:29:27.513Z,1.70
2022-10-26T09:31:57.240Z,1.55
2022-10-26T09:34:31.256Z,1.42
2022-10-26T09:36:57.640Z,1.50
2022-10-26T09:39:30.917Z,1.52
2022-10-26T09:42:02.974Z,1.55
2022-10-26T09:44:36.479Z,1.52
2022-10-26T09:47:15.877Z,1.63
2022-10-26T09:49:58.654Z,1.60
2022-10-26T09:52:25.049Z,1.85
2022-10-26T09:54:51.454Z,1.65
2022-10-26T09:57:20.239Z,1.70
2022-10-26T09:59:47.958Z,1.75
2022-10-26T10:02:37.761Z,1.48
2022-10-26T10:08:22.047Z,1.55
2022-10-26T10:11:05.678Z,1.67
2022-10-26T10:13:36.940Z,1.50
2022-10-26T10:16:06.410Z,1.80
2022-10-26T10:18:33.864Z,1.60
2022-10-26T10:21:00.667Z,1.33
2022-10-26T10:23:30.502Z,1.80
2022-10-26T10:26:02.458Z,1.45
2022-10-26T10:28:29.584Z,1.50
2022-10-26T10:31:07.137Z,1.60
2022-10-26T10:33:41.304Z,1.73
2022-10-26T10:36:13.390Z,1.40
2022-10-26T10:38:42.514Z,1.55
2022-10-26T10:41:30.785Z,1.48
2022-10-26T10:44:09.021Z,1.60
2022-10-26T10:46:37.622Z,1.58
2022-10-26T10:49:06.797Z,1.45
2022-10-26T10:51:39.049Z,1.55
2022-10-26T10:54:17.797Z,1.63
2022-10-26T10:56:51.047Z,1.60
2022-10-26T10:59:45.632Z,1.73
2022-10-26T11:02:58.284Z,1.52
2022-10-26T11:05:44.093Z,1.80
2022-10-26T11:08:27.115Z,1.60
2022-10-26T11:11:19.160Z,1.48
2022-10-26T11:14:01.697Z,1.70
2022-10-26T11:16:53.846Z,1.83
2022-10-26T11:19:51.560Z,1.60
2022-10-26T11:22:24.145Z,1.30
2022-10-26T11:24:58.255Z,1.83
2022-10-26T11:27:39.935Z,1.73
2022-10-26T11:30:15.303Z,1.80
2022-10-26T11:32:47.471Z,1.70
2022-10-26T11:35:20.258Z,1.80
2022-10-26T11:37:58.869Z,1.75
2022-10-26T11:40:47.189Z,1.50
2022-10-26T11:44:09.386Z,1.80
2022-10-26T11:46:41.723Z,1.70
2022-10-26T11:49:19.858Z,1.60
2022-10-26T11:51:59.191Z,1.38
2022-10-26T11:54:37.187Z,1.70
2022-10-26T11:57:05.191Z,1.80
2022-10-26T11:59:37.237Z,1.60
2022-10-26T12:02:15.287Z,1.70
2022-10-26T12:04:44.690Z,1.58
2022-10-26T12:07:20.104Z,1.80
2022-10-26T12:09:46.455Z,1.60
2022-10-26T12:12:33.808Z,1.48
2022-10-26T12:15:30.916Z,1.65
2022-10-26T12:18:50.206Z,1.40
2022-10-26T12:21:18.766Z,1.55
2022-10-26T12:24:02.889Z,2.03
2022-10-26T12:26:29.172Z,1.40
2022-10-26T12:29:01.478Z,1.77
2022-10-26T12:31:37.233Z,1.27
2022-10-26T12:37:06.728Z,1.45
2022-10-26T12:39:38.060Z,1.65
2022-10-26T12:42:04.323Z,1.90
2022-10-26T12:44:45.607Z,1.52
2022-10-26T12:47:30.211Z,1.63
2022-10-26T12:50:01.314Z,1.60
2022-10-26T12:52:33.478Z,1.70
2022-10-26T12:55:11.961Z,1.52
2022-10-26T12:57:56.495Z,1.42
2022-10-26T13:00:26.481Z,1.38
2022-10-26T13:02:55.652Z,1.60
2022-10-26T13:06:01.427Z,1.65
2022-10-26T13:08:28.407Z,1.50
2022-10-26T13:11:32.088Z,1.58
2022-10-26T13:14:02.914Z,1.67
2022-10-26T13:16:30.012Z,1.33
2022-10-26T13:18:57.863Z,1.40
2022-10-26T13:21:26.248Z,1.30
2022-10-26T13:23:56.710Z,1.60
2022-10-26T13:26:30.269Z,1.45
2022-10-26T13:29:03.921Z,1.73
2022-10-26T13:31:31.248Z,1.67
2022-10-26T13:34:01.091Z,1.80
2022-10-26T13:36:33.821Z,1.73
2022-10-26T13:39:06.386Z,1.45
2022-10-26T13:41:38.796Z,1.67
2022-10-26T13:44:18.323Z,1.48
2022-10-26T13:46:46.718Z,1.65
2022-10-26T13:49:27.631Z,1.58
2022-10-26T13:51:54.562Z,1.40
2022-10-26T13:54:30.141Z,1.77
2022-10-26T13:57:27.791Z,1.92
2022-10-26T14:00:00.058Z,2.17
2022-10-26T14:02:32.775Z,1.77
2022-10-26T14:05:05.295Z,1.80
2022-10-26T14:07:37.554Z,2.22
2022-10-26T14:10:04.728Z,2.10
2022-10-26T14:12:32.409Z,2.05
2022-10-26T14:15:06.916Z,1.90
2022-10-26T14:17:33.612Z,2.13
2022-10-26T14:20:00.649Z,1.70
2022-10-26T14:22:29.965Z,1.92
2022-10-26T14:24:58.800Z,2.05
2022-10-26T14:27:31.001Z,2.30
2022-10-26T14:30:21.198Z,1.90
2022-10-26T14:32:44.134Z,2.22
2022-10-26T14:35:14.406Z,1.85
2022-10-26T14:37:50.221Z,2.55
2022-10-26T14:42:50.328Z,2.30
2022-10-26T14:45:48.049Z,2.20
2022-10-26T14:48:33.071Z,2.33
2022-10-26T14:51:16.899Z,2.00
2022-10-26T14:53:49.319Z,1.75
2022-10-26T14:56:35.777Z,2.00
2022-10-26T15:02:03.287Z,1.90
2022-10-26T15:04:37.284Z,1.65
2022-10-26T15:07:12.753Z,2.60
2022-10-26T15:09:42.011Z,2.00
2022-10-26T15:12:38.134Z,2.50
2022-10-26T15:15:17.600Z,2.17
2022-10-26T15:17:51.544Z,2.30
2022-10-26T15:20:19.618Z,2.10
2022-10-26T15:22:53.474Z,1.92
2022-10-26T15:25:27.241Z,2.20
2022-10-26T15:27:54.370Z,2.03
2022-10-26T15:30:26.648Z,1.90
2022-10-26T15:32:56.283Z,2.38
2022-10-26T15:35:26.251Z,2.13
2022-10-26T15:37:53.946Z,1.83
2022-10-26T15:40:22.205Z,1.98
2022-10-26T15:42:53.442Z,2.10
2022-10-26T15:45:32.815Z,1.85
2022-10-26T15:48:15.465Z,1.83
2022-10-26T15:50:41.808Z,1.95
2022-10-26T15:53:15.399Z,2.35
2022-10-26T15:55:41.812Z,2.35
2022-10-26T15:58:11.051Z,2.20
2022-10-26T16:00:37.647Z,2.10
2022-10-26T16:03:03.984Z,2.20
2022-10-26T16:07:58.940Z,1.80
2022-10-26T16:10:25.552Z,2.08
2022-10-26T16:12:52.029Z,2.25
2022-10-26T16:15:24.338Z,2.33
2022-10-26T16:17:51.249Z,1.98
2022-10-26T16:20:23.099Z,2.50
2022-10-26T16:22:51.525Z,2.53
2022-10-26T16:25:23.571Z,2.10
2022-10-26T16:27:50.577Z,1.95
2022-10-26T16:30:18.793Z,2.00
2022-10-26T16:32:45.468Z,2.35
2022-10-26T16:35:12.796Z,2.10
2022-10-26T16:37:39.322Z,2.58
2022-10-26T16:40:06.815Z,2.90
2022-10-26T16:42:33.422Z,3.05
2022-10-26T16:45:02.634Z,3.05
2022-10-26T16:47:32.093Z,3.40
2022-10-26T16:49:58.516Z,3.50
2022-10-26T16:52:24.916Z,2.75
2022-10-26T16:54:51.272Z,3.53
2022-10-26T16:57:17.675Z,2.92
2022-10-26T16:59:44.140Z,3.10
2022-10-26T17:02:14.325Z,3.30
2022-10-26T17:04:40.823Z,3.88
2022-10-26T17:07:07.180Z,3.30
2022-10-26T17:09:33.552Z,3.85
2022-10-26T17:12:02.177Z,3.35
2022-10-26T17:14:28.868Z,3.70
2022-10-26T17:16:55.342Z,3.58
2022-10-26T17:19:21.754Z,3.53
2022-10-26T17:21:48.123Z,3.25
2022-10-26T17:24:14.556Z,3.20
2022-10-26T17:26:41.622Z,3.08
2022-10-26T17:29:07.937Z,3.90
2022-10-26T17:31:34.323Z,3.80
2022-10-26T17:34:00.705Z,3.88
2022-10-26T17:36:27.395Z,3.25
2022-10-26T17:38:55.210Z,3.58
2022-10-26T17:41:22.259Z,3.70
2022-10-26T17:43:49.471Z,5.05
2022-10-26T17:46:18.221Z,5.32
2022-10-26T17:48:45.398Z,4.50
2022-10-26T17:51:19.020Z,4.70
2022-10-26T17:53:49.370Z,4.30
2022-10-26T17:56:24.056Z,5.90
2022-10-26T17:58:55.598Z,6.75
2022-10-26T18:01:22.576Z,5.90
2022-10-26T18:03:49.335Z,5.72
2022-10-26T18:06:17.155Z,5.60
2022-10-26T18:08:45.464Z,4.95
2022-10-26T18:11:25.311Z,5.00
2022-10-26T18:13:56.804Z,5.10
2022-10-26T18:16:25.263Z,4.95
2022-10-26T18:19:01.460Z,4.93
2022-10-26T18:21:30.443Z,4.45
2022-10-26T18:23:56.804Z,4.68
2022-10-26T18:26:26.441Z,5.30
2022-10-26T18:28:53.114Z,4.68
2022-10-26T18:31:22.608Z,5.68
2022-10-26T18:33:49.391Z,5.20
2022-10-26T18:36:18.242Z,6.03
2022-10-26T18:38:47.028Z,6.03
2022-10-26T18:41:15.170Z,6.90
2022-10-26T18:43:43.896Z,6.63
2022-10-26T18:46:12.629Z,6.13
2022-10-26T18:48:39.932Z,6.07
2022-10-26T18:51:14.568Z,5.90
2022-10-26T18:53:42.554Z,6.68
2022-10-26T18:56:11.207Z,6.13
2022-10-26T18:58:41.087Z,6.43
2022-10-26T19:01:11.932Z,7.10
2022-10-26T19:03:39.654Z,7.28
2022-10-26T19:06:20.882Z,6.93
2022-10-26T19:08:47.747Z,6.43
2022-10-26T19:11:17.257Z,7.43
2022-10-26T19:13:44.016Z,7.38
2022-10-26T19:16:17.406Z,6.53
2022-10-26T19:18:56.151Z,6.68
2022-10-26T19:21:23.749Z,6.22
2022-10-26T19:23:52.518Z,5.90
2022-10-26T19:26:21.656Z,5.82
2022-10-26T19:28:55.044Z,6.40
2022-10-26T19:31:26.214Z,6.25
2022-10-26T19:33:56.330Z,5.78
2022-10-26T19:36:22.948Z,5.68
2022-10-26T19:38:49.446Z,6.25
2022-10-26T19:41:16.936Z,6.55
2022-10-26T19:43:43.471Z,5.70
2022-10-26T19:46:14.927Z,5.43
2022-10-26T19:48:41.831Z,5.90
2022-10-26T19:51:08.769Z,5.63
2022-10-26T19:53:35.774Z,5.22
2022-10-26T19:56:02.503Z,5.32
2022-10-26T19:58:30.896Z,5.07
2022-10-26T20:00:59.203Z,5.07
2022-10-26T20:03:26.519Z,5.60
2022-10-26T20:05:56.656Z,5.30
2022-10-26T20:08:23.807Z,4.97
2022-10-26T20:10:53.350Z,5.13
2022-10-26T20:13:20.017Z,5.40
2022-10-26T20:15:46.383Z,5.38
2022-10-26T20:18:13.562Z,4.78
2022-10-26T20:20:39.881Z,5.40
2022-10-26T20:23:07.614Z,5.82
2022-10-26T20:25:38.272Z,5.40
2022-10-26T20:28:06.129Z,5.05
2022-10-26T20:30:35.158Z,5.15
2022-10-26T20:33:02.127Z,5.30
2022-10-26T20:35:28.505Z,5.13
2022-10-26T20:37:56.186Z,5.18
2022-10-26T20:40:23.900Z,5.90
2022-10-26T20:42:52.163Z,5.47
2022-10-26T20:45:27.507Z,5.00
2022-10-26T20:47:57.022Z,5.97
2022-10-26T20:50:25.156Z,5.57
2022-10-26T20:53:02.482Z,5.40
2022-10-26T20:55:41.021Z,5.40
2022-10-26T20:58:45.109Z,5.22
2022-10-26T21:01:25.302Z,5.22
2022-10-26T21:03:53.430Z,4.63
2022-10-26T21:06:20.129Z,5.05
2022-10-26T21:08:49.613Z,4.57
2022-10-26T21:11:17.143Z,5.43
2022-10-26T21:13:45.719Z,4.70
2022-10-26T21:16:12.415Z,4.60
2022-10-26T21:18:39.183Z,4.85
2022-10-26T21:21:05.817Z,4.75
2022-10-26T21:23:33.589Z,4.57
2022-10-26T21:26:00.625Z,4.30
2022-10-26T21:28:33.628Z,4.30
2022-10-26T21:31:04.096Z,4.55
2022-10-26T21:33:33.634Z,4.13
2022-10-26T21:36:01.081Z,4.43
2022-10-26T21:38:28.827Z,4.20
2022-10-26T21:41:26.792Z,4.55
2022-10-26T21:44:03.290Z,3.83
2022-10-26T21:46:38.156Z,4.53
2022-10-26T21:49:05.115Z,4.00
2022-10-26T21:51:31.479Z,4.07
2022-10-26T21:53:58.346Z,4.45
2022-10-26T21:56:24.743Z,4.32
2022-10-26T21:58:51.068Z,4.15
2022-10-26T22:01:19.851Z,3.78
2022-10-26T22:03:47.686Z,4.35
2022-10-26T22:06:16.595Z,4.38
2022-10-26T22:08:43.835Z,4.32
2022-10-26T22:11:15.191Z,4.63
2022-10-26T22:13:42.891Z,4.72
2022-10-26T22:16:15.441Z,4.40
2022-10-26T22:18:45.991Z,4.28
2022-10-26T22:21:13.789Z,4.05
2022-10-26T22:23:42.428Z,3.88
2022-10-26T22:26:11.719Z,4.25
2022-10-26T22:28:42.465Z,3.75
2022-10-26T22:31:15.540Z,3.75
2022-10-26T22:33:42.516Z,3.53
2022-10-26T22:36:11.833Z,4.05
2022-10-26T22:38:38.513Z,3.75
2022-10-26T22:41:05.681Z,3.40
2022-10-26T22:43:32.403Z,4.00
2022-10-26T22:46:07.890Z,4.00
2022-10-26T22:48:35.005Z,3.72
2022-10-26T22:51:09.151Z,3.85
2022-10-26T22:53:36.025Z,3.53
2022-10-26T22:56:04.110Z,3.78
2022-10-26T22:58:30.888Z,3.90
2022-10-26T23:01:14.986Z,3.92
2022-10-26T23:03:41.487Z,4.15
2022-10-26T23:06:12.485Z,3.95
2022-10-26T23:08:39.406Z,3.97
2022-10-26T23:11:08.895Z,4.18
2022-10-26T23:13:35.343Z,4.18
2022-10-26T23:16:20.155Z,4.40
2022-10-26T23:18:47.488Z,3.83
2022-10-26T23:21:14.941Z,4.40
2022-10-26T23:23:41.654Z,4.07
2022-10-26T23:26:12.287Z,4.00
2022-10-26T23:28:39.430Z,4.25
2022-10-26T23:31:06.588Z,4.07
2022-10-26T23:33:33.347Z,4.28
2022-10-26T23:36:01.121Z,3.97
2022-10-26T23:38:27.607Z,4.40
2022-10-26T23:40:59.418Z,4.70
2022-10-26T23:43:27.379Z,4.63
2022-10-26T23:45:54.945Z,4.40
2022-10-26T23:48:21.535Z,4.45
2022-10-26T23:50:49.633Z,4.55
2022-10-26T23:53:17.879Z,4.28
2022-10-26T23:55:44.865Z,4.57
2022-10-26T23:58:12.203Z,4.68
